Time;durP1;ratioP1;P1;durP2;ratioP2;P2;SDS_P1;SDS_P2;PMS_P1;PMS_P2;Temp;Humidity;BMP_temperature;BMP_pressure;BME280_temperature;BME280_humidity;BME280_pressure;Samples;Min_cycle;Max_cycle;Signal;HPM_P1;HPM_P2
2023/11/07 00:02:17;;;;;;;;;;;;;;;16.95;45.68;101065.69;5096158;28;1058;-44
2023/11/07 00:04:42;;;;;;;;;;;;;;;16.15;46.43;101071.81;5095779;28;1058;-46
2023/11/07 00:07:08;;;;;;;;;;;;;;;15.96;45.37;101077.47;5096217;28;1018;-45
2023/11/07 00:09:33;;;;;;;;;;;;;;;15.74;45.27;101070.91;5095458;28;1152;-43
2023/11/07 00:11:59;;;;;;;;;;;;;;;15.99;45.33;101081.75;5095728;28;1972;-45
2023/11/07 00:14:27;;;;;;;;;;;;;;;16.86;46.01;101081.31;5095883;28;1050;-42
2023/11/07 00:16:52;;;;;;;;;;;;;;;16.15;46.13;101087.75;5096291;28;1205;-46
2023/11/07 00:19:18;;;;;;;;;;;;;;;15.97;45.62;101079.16;5096059;28;1125;-43
2023/11/07 00:21:43;;;;;;;;;;;;;;;15.86;44.97;101079.00;5095541;28;835;-46
2023/11/07 00:24:09;;;;;;;;;;;;;;;17.05;46.17;101080.00;5095741;28;1089;-41
2023/11/07 00:26:35;;;;;;;;;;;;;;;16.58;46.54;101085.00;5097804;28;1121;-42
2023/11/07 00:29:00;;;;;;;;;;;;;;;16.07;46.43;101082.09;5099892;28;1209;-44
2023/11/07 00:31:26;;;;;;;;;;;;;;;16.96;46.21;101086.84;5099788;28;1217;-44
2023/11/07 00:33:51;;;;;;;;;;;;;;;16.31;46.07;101081.44;5099143;28;1898;-40
2023/11/07 00:36:17;;;;;;;;;;;;;;;16.13;45.38;101087.00;5099755;28;1218;-41
2023/11/07 00:38:42;;;;;;;;;;;;;;;17.04;46.16;101083.63;5098514;28;1066;-42
2023/11/07 00:41:08;;;;;;;;;;;;;;;16.36;46.54;101079.34;5099851;28;1097;-45
2023/11/07 00:43:36;;;;;;;;;;;;;;;16.12;45.62;101076.47;5099328;28;1054;-45
2023/11/07 00:46:03;;;;;;;;;;;;;;;16.77;46.65;101074.81;5099231;28;878;-43
2023/11/07 00:48:29;;;;;;;;;;;;;;;16.66;46.93;101077.34;5099200;28;1034;-46
2023/11/07 00:50:54;;;;;;;;;;;;;;;16.38;46.11;101077.41;5099286;28;1070;-44
2023/11/07 00:53:20;;;;;;;;;;;;;;;16.01;45.70;101071.88;5098965;28;1906;-45
2023/11/07 00:55:46;;;;;;;;;;;;;;;16.02;44.95;101077.09;5099106;28;1078;-43
2023/11/07 00:58:11;;;;;;;;;;;;;;;15.79;44.62;101075.91;5131532;27;1006;-47
2023/11/07 01:00:37;;;;;;;;;;;;;;;17.23;45.80;101085.03;5098539;28;1182;-46
2023/11/07 01:03:02;;;;;;;;;;;;;;;16.31;46.73;101076.13;5097376;28;1025;-41
2023/11/07 01:05:28;;;;;;;;;;;;;;;16.13;45.84;101079.03;5098711;28;1066;-43
2023/11/07 01:07:53;;;;;;;;;;;;;;;16.95;46.26;101078.97;5098773;28;1201;-44
2023/11/07 01:10:19;;;;;;;;;;;;;;;16.31;46.03;101083.22;5098701;28;996;-45
2023/11/07 01:12:45;;;;;;;;;;;;;;;16.10;45.63;101073.94;5096960;28;1898;-42
2023/11/07 01:15:10;;;;;;;;;;;;;;;15.96;44.73;101071.31;5114280;28;1108;-44
2023/11/07 01:17:36;;;;;;;;;;;;;;;16.14;45.48;101077.25;5098727;28;1074;-42
2023/11/07 01:20:04;;;;;;;;;;;;;;;16.75;45.79;101079.38;5098837;28;1165;-42
2023/11/07 01:22:30;;;;;;;;;;;;;;;16.17;45.98;101074.38;5097187;28;1081;-41
2023/11/07 01:24:55;;;;;;;;;;;;;;;16.03;45.22;101065.53;5098524;28;1154;-46
2023/11/07 01:27:21;;;;;;;;;;;;;;;15.92;44.93;101075.97;5098120;28;1050;-42
2023/11/07 01:29:46;;;;;;;;;;;;;;;16.42;45.40;101080.72;5097138;28;1176;-46
2023/11/07 01:32:12;;;;;;;;;;;;;;;16.67;46.17;101080.84;5098113;28;1980;-43
2023/11/07 01:34:37;;;;;;;;;;;;;;;16.25;45.77;101082.69;5098177;28;931;-44
2023/11/07 01:37:03;;;;;;;;;;;;;;;16.93;46.55;101087.06;5098206;28;1093;-42
2023/11/07 01:39:28;;;;;;;;;;;;;;;16.37;46.12;101088.13;5097926;28;1042;-41
2023/11/07 01:41:54;;;;;;;;;;;;;;;16.14;45.84;101099.34;5130738;27;1129;-47
2023/11/07 01:44:20;;;;;;;;;;;;;;;15.97;44.89;101092.44;5098087;28;1143;-45
2023/11/07 01:46:45;;;;;;;;;;;;;;;16.71;45.79;101095.63;5096424;28;974;-46
2023/11/07 01:49:11;;;;;;;;;;;;;;;16.15;46.09;101108.13;5098296;28;1050;-44
2023/11/07 01:51:36;;;;;;;;;;;;;;;17.37;46.07;101106.19;5098061;28;1054;-43
2023/11/07 01:54:02;;;;;;;;;;;;;;;16.86;46.64;101113.19;5098117;28;1960;-46
2023/11/07 01:56:28;;;;;;;;;;;;;;;16.31;46.35;101110.66;5097012;28;1129;-42
2023/11/07 01:58:54;;;;;;;;;;;;;;;16.15;45.33;101110.78;5096283;28;1289;-44
2023/11/07 02:01:20;;;;;;;;;;;;;;;16.03;44.98;101115.94;5096266;28;1123;-44
2023/11/07 02:03:45;;;;;;;;;;;;;;;15.97;44.28;101124.28;5098173;28;1003;-45
2023/11/07 02:06:11;;;;;;;;;;;;;;;17.06;46.29;101128.72;5096424;28;1196;-46
2023/11/07 02:08:36;;;;;;;;;;;;;;;16.58;46.90;101130.16;5097497;28;1208;-42
2023/11/07 02:11:02;;;;;;;;;;;;;;;16.18;46.18;101129.19;5095921;28;1039;-44
2023/11/07 02:13:27;;;;;;;;;;;;;;;16.12;45.37;101127.78;5097618;28;1974;-46
2023/11/07 02:15:56;;;;;;;;;;;;;;;15.97;44.34;101134.03;5096224;28;1118;-46
2023/11/07 02:18:21;;;;;;;;;;;;;;;16.25;45.56;101138.44;5097325;28;1038;-44
2023/11/07 02:20:47;;;;;;;;;;;;;;;16.81;46.23;101139.22;5097155;28;1085;-43
2023/11/07 02:23:23;;;;;;;;;;;;;;;16.22;46.28;101138.63;5096890;28;1023;-44
2023/11/07 02:25:51;;;;;;;;;;;;;;;16.01;45.29;101133.78;5095542;28;1150;-42
2023/11/07 02:28:17;;;;;;;;;;;;;;;16.88;46.19;101137.84;5096301;28;1240;-42
2023/11/07 02:30:46;;;;;;;;;;;;;;;16.23;46.53;101142.16;5096908;28;1073;-44
2023/11/07 02:33:11;;;;;;;;;;;;;;;17.01;46.61;101140.53;5128966;27;1921;-44
2023/11/07 02:35:38;;;;;;;;;;;;;;;16.71;46.68;101144.31;5096943;28;1154;-42
2023/11/07 02:38:04;;;;;;;;;;;;;;;16.26;46.21;101144.59;5096961;28;1134;-45
2023/11/07 02:40:30;;;;;;;;;;;;;;;16.21;45.16;101147.56;5097253;28;1224;-45
2023/11/07 02:42:55;;;;;;;;;;;;;;;16.02;44.86;101145.22;5097102;28;1050;-47
2023/11/07 02:45:21;;;;;;;;;;;;;;;16.02;45.50;101137.28;5096403;28;959;-45
2023/11/07 02:47:46;;;;;;;;;;;;;;;16.58;46.06;101140.78;5096973;28;1182;-45
2023/11/07 02:50:12;;;;;;;;;;;;;;;16.14;46.12;101148.91;5096083;28;1129;-44
2023/11/07 02:52:38;;;;;;;;;;;;;;;16.13;46.10;101147.22;5095381;28;1910;-45
2023/11/07 02:55:04;;;;;;;;;;;;;;;17.32;45.82;101148.19;5094854;28;999;-43
2023/11/07 02:57:29;;;;;;;;;;;;;;;16.35;46.40;101146.63;5096316;28;1121;-48
2023/11/07 02:59:55;;;;;;;;;;;;;;;16.24;45.66;101143.84;5095252;28;1114;-42
2023/11/07 03:02:21;;;;;;;;;;;;;;;17.43;46.35;101143.94;5095584;28;1162;-44
2023/11/07 03:04:46;;;;;;;;;;;;;;;16.58;46.55;101151.41;5096567;28;1173;-44
2023/11/07 03:07:12;;;;;;;;;;;;;;;16.24;46.04;101143.84;5096462;28;1149;-47
2023/11/07 03:09:37;;;;;;;;;;;;;;;16.18;44.96;101150.41;5096030;28;1144;-45
2023/11/07 03:12:03;;;;;;;;;;;;;;;16.40;46.36;101151.66;5096792;28;1972;-47
2023/11/07 03:14:29;;;;;;;;;;;;;;;16.70;46.13;101150.56;5096516;28;1144;-47
2023/11/07 03:16:54;;;;;;;;;;;;;;;16.23;45.85;101150.94;5095188;28;1149;-43
2023/11/07 03:19:20;;;;;;;;;;;;;;;15.96;45.38;101151.78;5096547;28;1164;-45
2023/11/07 03:21:45;;;;;;;;;;;;;;;16.84;46.22;101159.41;5094604;28;1050;-44
2023/11/07 03:24:12;;;;;;;;;;;;;;;16.79;46.43;101159.72;5095200;28;1238;-45
2023/11/07 03:26:37;;;;;;;;;;;;;;;16.36;45.94;101156.31;5096263;28;1134;-44
2023/11/07 03:29:03;;;;;;;;;;;;;;;16.16;45.48;101154.97;5094239;28;1283;-47
2023/11/07 03:31:29;;;;;;;;;;;;;;;15.93;44.85;101156.41;5092687;28;1193;-39
2023/11/07 03:33:56;;;;;;;;;;;;;;;15.84;44.28;101171.97;5094404;28;1966;-47
2023/11/07 03:36:22;;;;;;;;;;;;;;;17.38;45.45;101173.53;5094983;28;1349;-42
2023/11/07 03:38:49;;;;;;;;;;;;;;;16.47;46.18;101176.00;5096203;28;1070;-46
2023/11/07 03:41:15;;;;;;;;;;;;;;;16.09;45.76;101174.88;5129158;27;1302;-40
2023/11/07 03:43:40;;;;;;;;;;;;;;;16.13;44.78;101182.53;5095956;28;1003;-40
2023/11/07 03:46:06;;;;;;;;;;;;;;;15.94;44.08;101187.28;5095642;28;1257;-43
2023/11/07 03:48:32;;;;;;;;;;;;;;;15.86;44.04;101183.34;5095849;28;1049;-40
2023/11/07 03:50:57;;;;;;;;;;;;;;;16.98;45.45;101185.06;5096033;28;1137;-41
2023/11/07 03:53:23;;;;;;;;;;;;;;;16.21;46.09;101184.72;5096303;28;1910;-43
2023/11/07 03:55:49;;;;;;;;;;;;;;;15.98;44.97;101194.13;5095708;28;1018;-40
2023/11/07 03:58:14;;;;;;;;;;;;;;;17.08;45.33;101196.75;5096111;28;1190;-42
2023/11/07 04:00:43;;;;;;;;;;;;;;;16.16;46.33;101192.13;5096584;28;1022;-44
2023/11/07 04:03:08;;;;;;;;;;;;;;;16.05;45.42;101203.41;5099764;28;1108;-42
2023/11/07 04:05:34;;;;;;;;;;;;;;;15.84;45.27;101203.81;5100346;28;986;-41
2023/11/07 04:07:59;;;;;;;;;;;;;;;16.51;45.77;101212.91;5100380;28;1200;-44
2023/11/07 04:10:25;;;;;;;;;;;;;;;16.91;46.18;101216.50;5099732;28;1115;-42
2023/11/07 04:12:51;;;;;;;;;;;;;;;16.32;46.19;101217.66;5085903;28;1969;-42
2023/11/07 04:15:17;;;;;;;;;;;;;;;16.12;45.21;101218.00;5100056;28;1117;-44
2023/11/07 04:17:42;;;;;;;;;;;;;;;16.00;44.70;101222.28;5095701;28;1066;-47
2023/11/07 04:20:10;;;;;;;;;;;;;;;16.68;45.94;101223.34;5090488;28;1063;-45
2023/11/07 04:22:36;;;;;;;;;;;;;;;16.49;46.40;101232.53;5096020;28;1136;-46
2023/11/07 04:25:02;;;;;;;;;;;;;;;16.13;45.87;101229.50;5088470;28;1245;-44
2023/11/07 04:27:28;;;;;;;;;;;;;;;15.98;45.26;101220.66;5093231;28;1047;-45
2023/11/07 04:29:53;;;;;;;;;;;;;;;16.81;45.98;101226.03;5099741;28;1155;-43
2023/11/07 04:32:19;;;;;;;;;;;;;;;16.56;45.87;101231.19;5085510;28;1981;-47
2023/11/07 04:34:44;;;;;;;;;;;;;;;16.23;45.66;101227.09;5091495;28;1132;-44
2023/11/07 04:37:10;;;;;;;;;;;;;;;16.08;45.03;101229.75;5095980;28;1018;-46
2023/11/07 04:39:36;;;;;;;;;;;;;;;15.91;44.23;101226.31;5088804;28;1118;-44
2023/11/07 04:42:03;;;;;;;;;;;;;;;16.49;45.69;101213.94;5084663;28;1177;-43
2023/11/07 04:44:28;;;;;;;;;;;;;;;16.92;46.10;101225.31;5091759;28;1082;-44
2023/11/07 04:46:54;;;;;;;;;;;;;;;16.20;46.51;101224.63;5096490;28;1054;-45
2023/11/07 04:49:19;;;;;;;;;;;;;;;16.55;46.99;101221.50;5086510;28;1026;-49
2023/11/07 04:51:45;;;;;;;;;;;;;;;17.01;46.38;101225.56;5092649;28;1062;-50
2023/11/07 04:54:11;;;;;;;;;;;;;;;16.33;46.28;101230.84;5091855;28;2032;-47
2023/11/07 04:56:36;;;;;;;;;;;;;;;16.20;45.72;101229.94;5079736;28;1097;-49
2023/11/07 04:59:02;;;;;;;;;;;;;;;16.14;44.66;101236.50;5082677;28;1181;-46
2023/11/07 05:01:28;;;;;;;;;;;;;;;15.94;44.12;101248.31;5098046;28;1066;-46
2023/11/07 05:03:54;;;;;;;;;;;;;;;15.82;43.82;101257.88;5086437;28;1225;-50
2023/11/07 05:06:20;;;;;;;;;;;;;;;17.21;45.87;101265.09;5095386;28;1125;-49
2023/11/07 05:08:45;;;;;;;;;;;;;;;16.32;46.31;101263.66;5098167;28;1090;-46
2023/11/07 05:11:12;;;;;;;;;;;;;;;16.09;45.59;101255.38;5092575;28;1140;-44
2023/11/07 05:13:38;;;;;;;;;;;;;;;16.85;45.98;101276.22;5097358;28;1902;-44
2023/11/07 05:16:04;;;;;;;;;;;;;;;16.17;46.17;101268.13;5098480;28;1073;-49
2023/11/07 05:18:30;;;;;;;;;;;;;;;16.07;45.28;101261.69;5098624;28;1121;-43
2023/11/07 05:20:55;;;;;;;;;;;;;;;17.07;45.90;101268.63;5098521;28;1065;-49
2023/11/07 05:23:22;;;;;;;;;;;;;;;16.21;46.72;101274.13;5097802;28;1055;-47
2023/11/07 05:25:48;;;;;;;;;;;;;;;16.01;45.65;101274.44;5084830;28;1173;-46
2023/11/07 05:28:13;;;;;;;;;;;;;;;15.95;44.86;101287.19;5098348;28;1049;-49
2023/11/07 05:30:39;;;;;;;;;;;;;;;15.83;44.56;101300.25;5097653;28;1073;-46
2023/11/07 05:33:05;;;;;;;;;;;;;;;17.34;42.79;101304.97;5098420;28;1966;-47
2023/11/07 05:35:31;;;;;;;;;;;;;;;17.10;43.27;101301.19;5087689;28;1237;-46
2023/11/07 05:37:56;;;;;;;;;;;;;;;16.93;44.06;101307.63;5088503;28;1066;-46
2023/11/07 05:40:23;;;;;;;;;;;;;;;16.80;44.42;101320.00;5094406;28;1070;-48
2023/11/07 05:42:50;;;;;;;;;;;;;;;16.57;45.32;101314.34;5082456;28;1070;-59
2023/11/07 05:45:17;;;;;;;;;;;;;;;16.46;45.95;101323.00;5060749;28;1399;-51
2023/11/07 05:47:42;;;;;;;;;;;;;;;16.36;45.90;101323.59;5068435;28;880;-47
2023/11/07 05:50:08;;;;;;;;;;;;;;;16.22;46.77;101323.59;5073458;28;2326;-46
2023/11/07 05:52:35;;;;;;;;;;;;;;;16.22;46.95;101320.94;5075697;28;2219;-48
2023/11/07 05:55:02;;;;;;;;;;;;;;;16.05;47.20;101322.84;5096833;28;2300;-50
2023/11/07 05:57:28;;;;;;;;;;;;;;;16.02;47.44;101326.53;5097119;28;2077;-46
2023/11/07 05:59:54;;;;;;;;;;;;;;;15.95;47.84;101327.81;5094936;28;1846;-48
2023/11/07 06:02:20;;;;;;;;;;;;;;;15.91;48.19;101334.28;5096982;28;2096;-46
2023/11/07 06:04:46;;;;;;;;;;;;;;;15.85;48.53;101347.94;5097442;28;1790;-47
2023/11/07 06:07:12;;;;;;;;;;;;;;;16.52;47.24;101342.06;5086447;28;1142;-47
2023/11/07 06:09:37;;;;;;;;;;;;;;;16.69;47.01;101337.47;5080556;28;1059;-46
2023/11/07 06:12:03;;;;;;;;;;;;;;;16.34;47.42;101352.03;5094792;28;2000;-45
2023/11/07 06:14:28;;;;;;;;;;;;;;;16.91;46.93;101349.38;5096881;28;1152;-46
2023/11/07 06:16:54;;;;;;;;;;;;;;;16.87;46.83;101350.53;5097119;28;1065;-44
2023/11/07 06:19:22;;;;;;;;;;;;;;;16.48;47.78;101350.34;5083259;28;1197;-44
2023/11/07 06:21:48;;;;;;;;;;;;;;;16.26;48.50;101355.19;5096497;28;1031;-41
2023/11/07 06:24:14;;;;;;;;;;;;;;;16.19;48.60;101355.63;5091980;28;1172;-43
2023/11/07 06:26:40;;;;;;;;;;;;;;;17.11;46.85;101361.41;5086100;28;982;-48
2023/11/07 06:29:05;;;;;;;;;;;;;;;16.63;47.52;101351.16;5089931;28;1054;-42
2023/11/07 06:31:31;;;;;;;;;;;;;;;16.36;48.57;101357.25;5087607;28;1088;-45
2023/11/07 06:33:57;;;;;;;;;;;;;;;16.27;48.58;101364.84;5082408;28;2491;-45
2023/11/07 06:36:24;;;;;;;;;;;;;;;17.21;46.90;101356.34;5078941;28;1098;-41
2023/11/07 06:38:49;;;;;;;;;;;;;;;16.90;47.62;101358.28;5068582;28;1106;-41
2023/11/07 06:41:17;;;;;;;;;;;;;;;16.62;47.84;101360.94;5088921;28;1130;-36
2023/11/07 06:43:43;;;;;;;;;;;;;;;16.37;48.59;101353.66;5075878;28;1090;-41
2023/11/07 06:46:08;;;;;;;;;;;;;;;16.27;48.67;101356.88;5089738;28;1126;-39
2023/11/07 06:48:34;;;;;;;;;;;;;;;16.50;48.69;101337.78;5090328;28;879;-38
2023/11/07 06:51:02;;;;;;;;;;;;;;;17.20;46.90;101346.63;5070566;28;1158;-39
2023/11/07 06:53:28;;;;;;;;;;;;;;;16.67;48.09;101351.78;5072504;28;1910;-40
2023/11/07 06:55:54;;;;;;;;;;;;;;;16.49;48.62;101352.03;5086683;28;1126;-38
2023/11/07 06:58:20;;;;;;;;;;;;;;;16.35;48.91;101348.44;5073615;28;1161;-37
2023/11/07 07:00:46;;;;;;;;;;;;;;;16.27;49.28;101351.56;5061949;28;1086;-39
2023/11/07 07:03:11;;;;;;;;;;;;;;;16.17;49.14;101350.44;5057348;28;1166;-38
2023/11/07 07:05:37;;;;;;;;;;;;;;;16.68;48.40;101340.25;5085152;28;2683;-37
2023/11/07 07:08:03;;;;;;;;;;;;;;;17.00;47.72;101345.25;5065453;28;1120;-37
2023/11/07 07:10:29;;;;;;;;;;;;;;;16.57;48.72;101354.19;5064032;28;1205;-38
2023/11/07 07:12:54;;;;;;;;;;;;;;;16.39;49.00;101359.72;5080029;28;1901;-38
2023/11/07 07:15:20;;;;;;;;;;;;;;;16.27;49.37;101356.03;5081410;28;1144;-41
2023/11/07 07:17:45;;;;;;;;;;;;;;;16.88;48.20;101361.06;5086705;28;1515;-37
2023/11/07 07:20:14;;;;;;;;;;;;;;;17.03;47.88;101369.00;5084418;28;1319;-38
2023/11/07 07:22:41;;;;;;;;;;;;;;;16.68;48.55;101370.31;5086236;28;1172;-37
2023/11/07 07:25:07;;;;;;;;;;;;;;;16.49;49.06;101368.81;5087933;28;1398;-37
2023/11/07 07:27:33;;;;;;;;;;;;;;;16.35;49.13;101367.03;5085887;28;1121;-37
2023/11/07 07:30:00;;;;;;;;;;;;;;;16.25;49.44;101374.69;5081368;28;1154;-39
2023/11/07 07:32:28;;;;;;;;;;;;;;;16.80;48.92;101373.16;5095097;28;1901;-37
2023/11/07 07:34:54;;;;;;;;;;;;;;;16.86;48.38;101372.75;5095481;28;2192;-38
2023/11/07 07:37:20;;;;;;;;;;;;;;;16.57;49.12;101363.03;5090388;28;1141;-37
2023/11/07 07:39:46;;;;;;;;;;;;;;;16.42;49.22;101363.97;5089323;28;1261;-37
2023/11/07 07:42:12;;;;;;;;;;;;;;;16.25;49.74;101368.53;5086243;28;1426;-37
2023/11/07 07:44:37;;;;;;;;;;;;;;;16.14;49.61;101364.75;5084840;28;1167;-37
2023/11/07 07:47:03;;;;;;;;;;;;;;;16.86;48.93;101365.63;5081532;28;1062;-37
2023/11/07 07:49:30;;;;;;;;;;;;;;;16.88;48.55;101362.88;5095774;28;852;-37
2023/11/07 07:51:59;;;;;;;;;;;;;;;16.48;49.43;101367.09;5095646;28;1909;-38
2023/11/07 07:54:24;;;;;;;;;;;;;;;16.34;49.66;101364.47;5096217;28;1101;-36
2023/11/07 07:56:56;;;;;;;;;;;;;;;16.21;49.93;101357.28;5095581;28;1007;-38
2023/11/07 07:59:23;;;;;;;;;;;;;;;16.20;49.69;101360.03;5084969;28;1096;-41
2023/11/07 08:01:52;;;;;;;;;;;;;;;17.24;48.01;101360.59;5081545;28;1243;-39
2023/11/07 08:04:28;;;;;;;;;;;;;;;16.90;48.63;101358.28;5094945;28;1825;-38
2023/11/07 08:06:54;;;;;;;;;;;;;;;16.57;49.45;101360.38;5096211;28;1082;-40
2023/11/07 08:09:19;;;;;;;;;;;;;;;16.41;49.58;101352.53;5095877;28;1106;-37
2023/11/07 08:11:47;;;;;;;;;;;;;;;16.32;49.58;101361.03;5094807;28;1199;-42
2023/11/07 08:14:14;;;;;;;;;;;;;;;16.26;49.96;101363.16;5095040;28;1897;-44
2023/11/07 08:16:41;;;;;;;;;;;;;;;16.11;49.95;101356.13;5095252;28;999;-41
2023/11/07 08:19:09;;;;;;;;;;;;;;;16.10;50.10;101363.22;5086092;28;1505;-41
2023/11/07 08:21:36;;;;;;;;;;;;;;;16.04;50.31;101358.31;5080861;28;1504;-45
2023/11/07 08:24:02;;;;;;;;;;;;;;;16.92;49.03;101353.75;5094096;28;1132;-41
2023/11/07 08:26:27;;;;;;;;;;;;;;;17.11;48.39;101353.44;5084118;28;1508;-45
2023/11/07 08:28:53;;;;;;;;;;;;;;;16.65;49.41;101349.25;5094663;28;1543;-41
2023/11/07 08:31:19;;;;;;;;;;;;;;;16.44;49.98;101356.78;5094371;28;994;-41
2023/11/07 08:33:47;;;;;;;;;;;;;;;17.28;48.18;101356.78;5095071;28;2305;-41
2023/11/07 08:36:13;;;;;;;;;;;;;;;16.96;48.82;101352.59;5095060;28;1088;-45
2023/11/07 08:38:39;;;;;;;;;;;;;;;16.64;49.68;101355.50;5095645;28;1106;-47
2023/11/07 08:41:04;;;;;;;;;;;;;;;16.48;49.87;101350.34;5085929;28;1123;-45
2023/11/07 08:43:31;;;;;;;;;;;;;;;16.37;49.91;101349.19;5095428;28;1019;-43
2023/11/07 08:45:56;;;;;;;;;;;;;;;16.34;50.26;101349.41;5094793;28;1031;-44
2023/11/07 08:48:22;;;;;;;;;;;;;;;16.24;50.11;101353.56;5096534;28;1085;-45
2023/11/07 08:50:47;;;;;;;;;;;;;;;16.22;49.99;101348.34;5094351;28;1192;-41
2023/11/07 08:53:13;;;;;;;;;;;;;;;16.13;50.46;101348.94;5087929;28;1943;-42
2023/11/07 08:55:40;;;;;;;;;;;;;;;16.99;49.13;101347.09;5095191;28;1171;-46
2023/11/07 08:58:05;;;;;;;;;;;;;;;17.04;48.92;101338.81;5098315;28;1146;-45
2023/11/07 09:00:33;;;;;;;;;;;;;;;16.68;49.72;101350.88;5097987;28;1026;-44
2023/11/07 09:02:59;;;;;;;;;;;;;;;16.48;50.19;101347.69;5098655;28;1054;-43
2023/11/07 09:05:24;;;;;;;;;;;;;;;16.37;50.21;101353.66;5098284;28;2562;-47
2023/11/07 09:07:50;;;;;;;;;;;;;;;16.28;50.26;101345.31;5098139;28;1188;-43
2023/11/07 09:10:16;;;;;;;;;;;;;;;16.18;50.68;101348.63;5097925;28;1171;-44
2023/11/07 09:12:42;;;;;;;;;;;;;;;16.70;50.24;101343.66;5093447;28;1883;-45
2023/11/07 09:15:10;;;;;;;;;;;;;;;17.17;48.85;101338.00;5087890;28;1201;-42
2023/11/07 09:17:36;;;;;;;;;;;;;;;16.70;50.06;101338.34;5081036;28;1156;-44
2023/11/07 09:20:03;;;;;;;;;;;;;;;16.47;50.33;101335.31;5083658;28;1527;-43
2023/11/07 09:22:28;;;;;;;;;;;;;;;16.40;50.25;101340.16;5081017;28;1009;-41
2023/11/07 09:24:54;;;;;;;;;;;;;;;16.27;50.57;101330.34;5090813;28;1390;-42
2023/11/07 09:27:20;;;;;;;;;;;;;;;16.23;50.39;101331.47;5078014;28;1201;-43
2023/11/07 09:29:46;;;;;;;;;;;;;;;16.74;49.98;101331.88;5092403;28;1453;-41
2023/11/07 09:32:12;;;;;;;;;;;;;;;16.97;49.23;101327.72;5097617;28;1905;-41
2023/11/07 09:34:40;;;;;;;;;;;;;;;16.66;50.00;101324.41;5096852;28;2253;-45
2023/11/07 09:37:07;;;;;;;;;;;;;;;16.47;50.21;101316.75;5096189;28;1343;-43
2023/11/07 09:39:36;;;;;;;;;;;;;;;16.34;50.46;101312.22;5097464;28;1010;-39
2023/11/07 09:42:04;;;;;;;;;;;;;;;16.32;50.64;101307.94;5094132;28;1280;-39
2023/11/07 09:44:30;;;;;;;;;;;;;;;16.20;50.76;101304.28;5097655;28;1494;-40
2023/11/07 09:46:55;;;;;;;;;;;;;;;16.17;50.29;101302.66;5097907;28;1042;-41
2023/11/07 09:49:21;;;;;;;;;;;;;;;17.19;49.18;101298.88;5097299;28;1070;-42
2023/11/07 09:51:47;;;;;;;;;;;;;;;17.07;49.14;101298.72;5130831;27;1046;-47
2023/11/07 09:54:13;;;;;;;;;;;;;;;16.72;50.07;101297.44;5095811;28;1991;-48
2023/11/07 09:56:42;;;;;;;;;;;;;;;16.51;50.46;101297.88;5097786;28;1034;-46
2023/11/07 09:59:21;;;;;;;;;;;;;;;16.39;50.70;101296.00;5083930;28;1046;-50
2023/11/07 10:01:47;;;;;;;;;;;;;;;16.28;50.90;101289.56;5095596;28;1098;-46
2023/11/07 10:04:14;;;;;;;;;;;;;;;16.50;50.79;101290.84;5097149;28;1779;-41
2023/11/07 10:06:40;;;;;;;;;;;;;;;17.32;48.80;101296.25;5097069;28;1146;-39
2023/11/07 10:09:06;;;;;;;;;;;;;;;16.84;50.01;101287.81;5092761;28;1083;-38
2023/11/07 10:11:33;;;;;;;;;;;;;;;16.65;50.20;101289.00;5093359;28;1149;-39
2023/11/07 10:13:59;;;;;;;;;;;;;;;16.45;50.92;101286.78;5129695;27;1913;-41
2023/11/07 10:16:45;;;;;;;;;;;;;;;16.35;50.58;101284.72;5080836;28;1100;-42
2023/11/07 10:19:16;;;;;;;;;;;;;;;16.27;50.97;101287.00;5070675;28;1089;-39
2023/11/07 10:21:41;;;;;;;;;;;;;;;17.10;49.80;101282.59;5090231;28;1232;-39
2023/11/07 10:24:07;;;;;;;;;;;;;;;17.16;49.45;101278.69;5097332;28;1252;-39
2023/11/07 10:26:32;;;;;;;;;;;;;;;16.73;50.34;101283.19;5096522;28;871;-43
2023/11/07 10:29:05;;;;;;;;;;;;;;;16.63;50.45;101272.31;5096736;28;1114;-46
2023/11/07 10:31:30;;;;;;;;;;;;;;;16.51;50.96;101275.78;5086905;28;991;-41
2023/11/07 10:34:22;;;;;;;;;;;;;;;16.44;50.84;101277.09;5091402;28;2653;-51
2023/11/07 10:36:49;;;;;;;;;;;;;;;16.34;50.88;101280.34;5082761;28;1347;-48
2023/11/07 10:39:16;;;;;;;;;;;;;;;16.22;50.79;101279.31;5083169;28;1029;-46
2023/11/07 10:41:43;;;;;;;;;;;;;;;16.46;51.11;101280.53;5095993;28;1053;-46
2023/11/07 10:44:22;;;;;;;;;;;;;;;17.32;49.46;101278.50;5095978;28;1150;-42
2023/11/07 10:46:48;;;;;;;;;;;;;;;16.77;50.59;101273.22;5092032;28;1206;-44
2023/11/07 10:49:14;;;;;;;;;;;;;;;16.55;50.88;101274.59;5090190;28;1078;-41
2023/11/07 10:51:40;;;;;;;;;;;;;;;16.43;51.00;101272.75;5076099;28;1234;-39
2023/11/07 10:54:07;;;;;;;;;;;;;;;16.33;51.27;101269.84;5128806;27;2001;-43
2023/11/07 10:56:34;;;;;;;;;;;;;;;16.25;51.12;101273.81;5096180;28;1411;-39
2023/11/07 10:59:01;;;;;;;;;;;;;;;16.14;51.29;101271.84;5095219;28;1438;-41
2023/11/07 11:01:36;;;;;;;;;;;;;;;16.15;51.29;101264.72;5095746;28;1362;-40
2023/11/07 11:04:02;;;;;;;;;;;;;;;17.21;50.18;101262.41;5095770;28;1892;-44
2023/11/07 11:06:28;;;;;;;;;;;;;;;16.84;50.64;101260.38;5094502;28;1113;-43
2023/11/07 11:08:54;;;;;;;;;;;;;;;16.57;51.15;101258.56;5083571;28;1133;-46
2023/11/07 11:11:19;;;;;;;;;;;;;;;16.37;51.54;101261.56;5093133;28;1429;-41
2023/11/07 11:13:45;;;;;;;;;;;;;;;16.32;51.45;101258.34;5091758;28;1970;-45
2023/11/07 11:16:10;;;;;;;;;;;;;;;16.84;51.22;101255.06;5116462;27;1193;-45
2023/11/07 11:18:59;;;;;;;;;;;;;;;17.04;50.38;101252.88;5112486;27;1202;-44
2023/11/07 11:21:27;;;;;;;;;;;;;;;16.68;51.14;101247.25;5115423;28;1158;-41
2023/11/07 11:24:04;;;;;;;;;;;;;;;16.44;51.50;101254.06;5094505;28;1031;-40
2023/11/07 11:26:48;;;;;;;;;;;;;;;16.35;51.50;101254.66;5077535;28;1447;-44
2023/11/07 11:29:27;;;;;;;;;;;;;;;16.26;51.55;101249.00;5081616;28;1275;-44
2023/11/07 11:31:52;;;;;;;;;;;;;;;16.96;50.96;101243.63;5083844;28;1158;-45
2023/11/07 11:34:31;;;;;;;;;;;;;;;17.18;50.18;101247.53;5095433;28;2340;-47
2023/11/07 11:36:57;;;;;;;;;;;;;;;17.10;51.18;101237.41;5096071;28;1058;-47
2023/11/07 11:39:37;;;;;;;;;;;;;;;16.70;51.00;101230.25;5095126;28;948;-44
2023/11/07 11:42:05;;;;;;;;;;;;;;;16.47;51.32;101229.97;5095376;28;1014;-46
2023/11/07 11:44:30;;;;;;;;;;;;;;;16.39;51.54;101225.16;5095499;28;1113;-42
2023/11/07 11:46:56;;;;;;;;;;;;;;;16.36;51.47;101230.66;5093061;28;1181;-44
2023/11/07 11:49:23;;;;;;;;;;;;;;;17.22;50.59;101227.75;5087304;28;1062;-45
2023/11/07 11:51:52;;;;;;;;;;;;;;;16.81;51.21;101226.03;5094322;28;1051;-41
2023/11/07 11:54:26;;;;;;;;;;;;;;;16.54;51.58;101227.75;5095945;28;1985;-43
2023/11/07 11:56:51;;;;;;;;;;;;;;;16.42;51.65;101229.41;5092884;28;1209;-41
2023/11/07 11:59:17;;;;;;;;;;;;;;;16.39;51.40;101227.81;5095663;28;1150;-49
2023/11/07 12:01:50;;;;;;;;;;;;;;;16.27;51.80;101228.59;5094524;28;1059;-42
2023/11/07 12:04:35;;;;;;;;;;;;;;;16.21;51.45;101224.53;5101108;28;2209;-43
2023/11/07 12:07:07;;;;;;;;;;;;;;;16.14;51.35;101218.78;5089230;28;1676;-48
2023/11/07 12:09:35;;;;;;;;;;;;;;;17.07;51.32;101226.94;5092104;28;1218;-48
2023/11/07 12:12:01;;;;;;;;;;;;;;;17.22;50.63;101233.06;5095347;28;1155;-47
2023/11/07 12:14:28;;;;;;;;;;;;;;;16.70;51.59;101216.97;5091274;28;1929;-47
2023/11/07 12:17:00;;;;;;;;;;;;;;;16.51;51.73;101226.19;5094194;28;1343;-45
2023/11/07 12:19:25;;;;;;;;;;;;;;;16.46;51.75;101220.31;5094728;28;1406;-50
2023/11/07 12:21:55;;;;;;;;;;;;;;;16.33;51.59;101220.22;5096319;28;1476;-48
2023/11/07 12:24:20;;;;;;;;;;;;;;;16.25;51.43;101226.03;5085675;28;1162;-45
2023/11/07 12:26:46;;;;;;;;;;;;;;;16.37;52.33;101227.06;5098408;28;1026;-45
2023/11/07 12:29:12;;;;;;;;;;;;;;;17.74;50.20;101230.41;5099044;28;1034;-53
2023/11/07 12:31:38;;;;;;;;;;;;;;;17.15;51.40;101221.13;5099644;28;1034;-55
2023/11/07 12:34:04;;;;;;;;;;;;;;;17.88;49.75;101231.25;5099079;28;2415;-47
2023/11/07 12:36:29;;;;;;;;;;;;;;;16.70;51.58;101234.75;5098612;28;1247;-46
2023/11/07 12:38:54;;;;;;;;;;;;;;;16.45;52.04;101228.38;5098645;28;1069;-45
2023/11/07 12:41:20;;;;;;;;;;;;;;;16.38;51.79;101219.94;5093400;28;1009;-44
2023/11/07 12:43:46;;;;;;;;;;;;;;;16.87;52.13;101223.84;5084144;28;1116;-46
2023/11/07 12:46:13;;;;;;;;;;;;;;;17.05;51.56;101220.88;5088946;28;1061;-45